Terminal Aerodrome Forecast
Issued by NWS

Home | Current Version | Previous Version | Text Only | Print | Product List | Glossary Off
Versions: 1 2 3 4 5 6 7 8 9 10 11 12 13 14 15

000
FTUS43 KIWX 152322
TAFSBN
TAF
KSBN 152322Z 1600/1624 23008KT P6SM -SHSN OVC025
     FM160300 24009KT 5SM BR OVC025
     FM161200 24006KT 1SM -SHSN BR OVC015
     FM161500 26007KT P6SM BKN015=

USA.gov is the U.S. government's official web portal to all federal, state and local government web resources and services.